Time;durP1;ratioP1;P1;durP2;ratioP2;P2;SDS_P1;SDS_P2;PMS_P1;PMS_P2;Temp;Humidity;BMP_temperature;BMP_pressure;BME280_temperature;BME280_humidity;BME280_pressure;Samples;Min_cycle;Max_cycle;Signal;HPM_P1;HPM_P2
2021/06/26 00:02:15;;;;;;;31.35;27.95;;;20.30;78.40;;;;;;4941904;29;20039;-67
2021/06/26 00:04:43;;;;;;;31.27;27.98;;;20.40;78.00;;;;;;4924164;29;20452;-67
2021/06/26 00:07:08;;;;;;;34.92;29.58;;;20.40;78.00;;;;;;4941512;29;20047;-66
2021/06/26 00:09:34;;;;;;;34.40;29.15;;;20.50;77.80;;;;;;4940511;29;20035;-67
2021/06/26 00:12:00;;;;;;;33.40;29.95;;;20.60;77.60;;;;;;4940338;29;20062;-67
2021/06/26 00:14:26;;;;;;;43.75;39.25;;;20.60;77.60;;;;;;4941050;29;20404;-67
2021/06/26 00:16:51;;;;;;;33.00;29.35;;;20.60;78.00;;;;;;4939418;29;20078;-67
2021/06/26 00:19:17;;;;;;;30.88;27.65;;;20.50;77.90;;;;;;4941831;29;20990;-66
2021/06/26 00:21:44;;;;;;;29.27;26.08;;;20.50;77.90;;;;;;4941590;29;20051;-67
2021/06/26 00:24:10;;;;;;;30.85;27.55;;;20.50;77.80;;;;;;4942234;29;20044;-67
2021/06/26 00:26:36;;;;;;;33.17;27.83;;;20.60;77.70;;;;;;4939125;29;20074;-67
2021/06/26 00:29:02;;;;;;;34.28;29.30;;;20.60;77.10;;;;;;4940394;29;20501;-66
2021/06/26 00:31:28;;;;;;;38.05;32.30;;;20.70;76.80;;;;;;4941554;29;20040;-66
2021/06/26 00:33:54;;;;;;;44.90;35.80;;;20.70;77.20;;;;;;4923855;29;20039;-67
2021/06/26 00:36:20;;;;;;;39.13;32.00;;;20.70;77.80;;;;;;4939951;29;20578;-67
2021/06/26 00:38:46;;;;;;;41.75;37.25;;;20.40;78.00;;;;;;4940188;29;20054;-67
2021/06/26 00:41:11;;;;;;;45.38;36.38;;;20.20;78.90;;;;;;4940282;29;20087;-68
2021/06/26 00:43:37;;;;;;;39.95;35.63;;;20.00;79.80;;;;;;4941214;29;20035;-67
2021/06/26 00:46:03;;;;;;;30.75;27.48;;;19.80;80.20;;;;;;4939508;29;20047;-67
2021/06/26 00:48:29;;;;;;;45.28;38.55;;;19.70;80.40;;;;;;4923592;29;20039;-67
2021/06/26 00:50:55;;;;;;;43.85;39.13;;;19.50;81.10;;;;;;4939116;29;20039;-67
2021/06/26 00:53:21;;;;;;;48.22;40.53;;;19.40;82.10;;;;;;4940487;29;20078;-67
2021/06/26 00:55:56;;;;;;;44.75;36.72;;;19.20;82.90;;;;;;4940405;29;20051;-67
2021/06/26 00:58:23;;;;;;;47.00;38.15;;;19.00;83.50;;;;;;4941574;29;20464;-67
2021/06/26 01:00:50;;;;;;;38.22;33.58;;;18.80;84.10;;;;;;4939525;29;20102;-68
2021/06/26 01:03:16;;;;;;;45.80;38.03;;;18.80;84.30;;;;;;4940236;28;20472;-67
2021/06/26 01:05:42;;;;;;;45.65;36.92;;;18.70;84.60;;;;;;4939952;29;20051;-67
2021/06/26 01:08:08;;;;;;;40.05;35.50;;;18.70;84.70;;;;;;4941303;29;20040;-67
2021/06/26 01:10:42;;;;;;;33.38;29.80;;;18.80;84.80;;;;;;4941074;29;20035;-67
2021/06/26 01:13:08;;;;;;;32.15;28.67;;;18.70;84.60;;;;;;4940997;29;20114;-67
2021/06/26 01:15:34;;;;;;;38.67;32.17;;;18.80;84.40;;;;;;4922797;29;20094;-67
2021/06/26 01:18:00;;;;;;;32.95;27.33;;;19.00;84.20;;;;;;4923194;29;20043;-67
2021/06/26 01:20:26;;;;;;;29.52;25.88;;;19.10;83.50;;;;;;4922688;29;20039;-67
2021/06/26 01:22:59;;;;;;;38.67;32.65;;;19.20;83.10;;;;;;4940099;29;20047;-67
2021/06/26 01:25:29;;;;;;;44.72;37.08;;;19.40;82.70;;;;;;4941072;29;20050;-67
2021/06/26 01:27:57;;;;;;;30.25;26.95;;;19.50;82.50;;;;;;4940695;29;20462;-67
2021/06/26 01:30:26;;;;;;;41.00;33.70;;;19.50;82.30;;;;;;4938909;29;20114;-67
2021/06/26 01:32:51;;;;;;;44.33;37.70;;;19.40;82.40;;;;;;4921426;29;20159;-67
2021/06/26 01:35:17;;;;;;;31.27;25.90;;;19.30;82.80;;;;;;4939762;29;20039;-67
2021/06/26 01:37:43;;;;;;;33.28;27.27;;;19.20;83.10;;;;;;4939521;29;20511;-67
2021/06/26 01:40:15;;;;;;;27.83;24.70;;;19.30;82.90;;;;;;4939730;29;20449;-67
2021/06/26 01:42:41;;;;;;;30.02;26.55;;;19.50;82.20;;;;;;4939475;29;20039;-67
2021/06/26 01:45:08;;;;;;;30.13;24.13;;;19.70;81.30;;;;;;4938745;29;20043;-67
2021/06/26 01:47:33;;;;;;;30.52;25.27;;;19.90;80.50;;;;;;4939075;29;20051;-67
2021/06/26 01:50:00;;;;;;;29.42;25.50;;;20.10;79.70;;;;;;4939025;29;20069;-67
2021/06/26 01:52:26;;;;;;;30.90;26.13;;;20.30;78.90;;;;;;4921543;29;20062;-67
2021/06/26 01:54:52;;;;;;;29.83;25.45;;;20.40;78.20;;;;;;4939504;29;20160;-67
2021/06/26 01:57:19;;;;;;;32.92;28.05;;;20.60;77.60;;;;;;4938902;29;20110;-67
2021/06/26 01:59:46;;;;;;;30.92;25.88;;;20.70;77.20;;;;;;4922540;29;20436;-67
2021/06/26 02:02:11;;;;;;;33.03;28.45;;;20.60;76.90;;;;;;4939402;29;20603;-67
2021/06/26 02:04:37;;;;;;;30.65;25.52;;;20.60;76.90;;;;;;4938761;29;20772;-67
2021/06/26 02:07:04;;;;;;;30.75;26.33;;;20.70;76.50;;;;;;4939304;29;20038;-67
2021/06/26 02:09:30;;;;;;;33.75;27.83;;;20.80;76.30;;;;;;4939530;29;20444;-67
2021/06/26 02:11:56;;;;;;;30.60;26.08;;;20.80;76.00;;;;;;4940333;29;20934;-67
2021/06/26 02:14:21;;;;;;;33.03;26.90;;;20.90;75.70;;;;;;4933667;28;20063;-67
2021/06/26 02:16:48;;;;;;;32.78;27.23;;;20.90;75.30;;;;;;4921037;29;20129;-64
2021/06/26 02:19:13;;;;;;;31.02;25.65;;;21.00;75.30;;;;;;4943916;29;20044;-65
2021/06/26 02:21:39;;;;;;;31.08;24.73;;;21.00;74.50;;;;;;4941073;29;20043;-64
2021/06/26 02:24:06;;;;;;;29.23;24.40;;;21.00;74.20;;;;;;4944557;29;20043;-67
2021/06/26 02:26:32;;;;;;;29.25;25.25;;;21.00;73.80;;;;;;4942397;29;20039;-65
2021/06/26 02:28:57;;;;;;;29.63;25.35;;;21.10;73.70;;;;;;4943069;29;20440;-67
2021/06/26 02:31:23;;;;;;;27.50;24.05;;;21.10;73.60;;;;;;4941772;29;20058;-67
2021/06/26 02:33:49;;;;;;;29.75;24.50;;;21.10;73.40;;;;;;4944726;29;20039;-67
2021/06/26 02:36:15;;;;;;;29.50;25.27;;;21.10;73.40;;;;;;4944030;29;20036;-67
2021/06/26 02:38:40;;;;;;;29.33;24.80;;;21.10;73.40;;;;;;4944206;29;20039;-67
2021/06/26 02:41:06;;;;;;;27.42;23.35;;;21.10;73.40;;;;;;4941039;29;20129;-67
2021/06/26 02:43:32;;;;;;;29.13;24.67;;;21.10;73.50;;;;;;4940492;29;20047;-66
2021/06/26 02:45:58;;;;;;;26.42;23.15;;;21.10;73.50;;;;;;4943397;29;20043;-66
2021/06/26 02:48:23;;;;;;;27.92;22.55;;;21.10;73.60;;;;;;4941259;29;20038;-65
2021/06/26 02:50:49;;;;;;;27.58;23.15;;;21.10;73.70;;;;;;4925165;29;20051;-66
2021/06/26 02:53:15;;;;;;;25.45;22.25;;;21.10;73.80;;;;;;4943269;29;20063;-66
2021/06/26 02:55:41;;;;;;;26.15;21.92;;;21.10;73.90;;;;;;4942085;29;20067;-67
2021/06/26 02:58:07;;;;;;;25.35;21.60;;;21.10;73.80;;;;;;4941706;29;20086;-67
2021/06/26 03:00:32;;;;;;;27.75;23.40;;;21.10;73.90;;;;;;4942513;29;20043;-66
2021/06/26 03:02:58;;;;;;;25.02;21.92;;;21.10;73.80;;;;;;4942559;29;20062;-66
2021/06/26 03:05:24;;;;;;;28.25;24.45;;;21.10;74.20;;;;;;4942823;29;20118;-66
2021/06/26 03:07:51;;;;;;;25.63;20.80;;;21.20;74.00;;;;;;4925009;29;20040;-66
2021/06/26 03:10:18;;;;;;;26.88;22.10;;;21.20;73.60;;;;;;4926175;29;20466;-65
2021/06/26 03:12:44;;;;;;;27.00;23.50;;;21.20;73.40;;;;;;4941922;29;20035;-66
2021/06/26 03:15:10;;;;;;;26.00;21.73;;;21.30;73.30;;;;;;4941205;29;20916;-66
2021/06/26 03:17:36;;;;;;;27.10;22.08;;;21.30;73.20;;;;;;4942540;29;20050;-66
2021/06/26 03:20:06;;;;;;;25.25;21.33;;;21.30;73.20;;;;;;4941003;29;20052;-66
2021/06/26 03:22:32;;;;;;;25.98;20.67;;;21.30;73.10;;;;;;4943015;29;20047;-66
2021/06/26 03:25:02;;;;;;;24.13;19.77;;;21.30;73.50;;;;;;4943312;28;20107;-66
2021/06/26 03:27:27;;;;;;;27.40;22.45;;;21.30;73.40;;;;;;4941606;29;20040;-66
2021/06/26 03:29:53;;;;;;;27.35;19.42;;;21.30;73.20;;;;;;4942959;29;20047;-66
2021/06/26 03:32:19;;;;;;;23.13;20.17;;;21.30;72.90;;;;;;4924187;29;20050;-66
2021/06/26 03:34:46;;;;;;;26.80;21.50;;;21.30;73.00;;;;;;4942556;29;20051;-66
2021/06/26 03:37:11;;;;;;;25.80;20.45;;;21.40;72.80;;;;;;4933872;29;20463;-66
2021/06/26 03:39:39;;;;;;;26.23;21.08;;;21.40;72.60;;;;;;4942234;29;20090;-66
2021/06/26 03:42:06;;;;;;;22.67;20.10;;;21.40;72.50;;;;;;4942509;29;20646;-66
2021/06/26 03:44:32;;;;;;;23.85;19.25;;;21.40;72.40;;;;;;4940984;29;20127;-66
2021/06/26 03:46:57;;;;;;;24.92;20.58;;;21.40;72.10;;;;;;4924338;29;20146;-66
2021/06/26 03:49:23;;;;;;;22.05;18.38;;;21.40;72.10;;;;;;4941884;29;20046;-66
2021/06/26 03:51:49;;;;;;;20.77;18.35;;;21.40;71.80;;;;;;4925170;29;20039;-66
2021/06/26 03:54:15;;;;;;;25.35;21.65;;;21.40;71.80;;;;;;4940405;29;20184;-66
2021/06/26 03:56:40;;;;;;;22.60;18.10;;;21.40;71.60;;;;;;4943254;29;20032;-66
2021/06/26 03:59:06;;;;;;;21.30;18.27;;;21.40;71.50;;;;;;4937014;29;21040;-66
2021/06/26 04:01:32;;;;;;;22.23;18.75;;;21.40;71.40;;;;;;4940760;29;20051;-66
2021/06/26 04:03:58;;;;;;;20.85;18.65;;;21.40;71.20;;;;;;4941442;29;20433;-66
2021/06/26 04:06:24;;;;;;;25.30;19.50;;;21.50;71.20;;;;;;4925060;29;20118;-66
2021/06/26 04:08:50;;;;;;;20.05;17.60;;;21.40;71.10;;;;;;4940766;29;20039;-66
2021/06/26 04:11:36;;;;;;;21.08;18.85;;;21.40;71.10;;;;;;4926099;29;20123;-66
2021/06/26 04:14:02;;;;;;;19.90;17.42;;;21.40;71.20;;;;;;4942141;29;20127;-66
2021/06/26 04:16:27;;;;;;;21.08;18.73;;;21.50;71.20;;;;;;4941975;29;20036;-66
2021/06/26 04:18:53;;;;;;;20.30;17.80;;;21.50;71.40;;;;;;4941348;29;20039;-66
2021/06/26 04:21:19;;;;;;;19.25;15.65;;;21.50;71.30;;;;;;4940940;29;20044;-66
2021/06/26 04:23:46;;;;;;;21.55;17.50;;;21.50;71.10;;;;;;4941691;29;20047;-65
2021/06/26 04:26:12;;;;;;;19.60;17.42;;;21.50;71.20;;;;;;4933161;29;20050;-65
2021/06/26 04:28:38;;;;;;;20.17;17.98;;;21.50;71.30;;;;;;4923909;29;20051;-65
2021/06/26 04:31:04;;;;;;;20.45;18.25;;;21.50;71.20;;;;;;4941912;29;20166;-67
2021/06/26 04:33:30;;;;;;;19.80;17.70;;;21.50;71.00;;;;;;4939958;29;20071;-65
2021/06/26 04:35:55;;;;;;;19.40;17.30;;;21.50;71.00;;;;;;4939177;29;20058;-65
2021/06/26 04:38:22;;;;;;;22.60;19.42;;;21.50;71.10;;;;;;4941817;29;20043;-65
2021/06/26 04:40:52;;;;;;;19.88;16.27;;;21.50;71.50;;;;;;4941289;29;20039;-65
2021/06/26 04:43:19;;;;;;;25.58;18.35;;;21.50;71.50;;;;;;4941530;29;20050;-65
2021/06/26 04:45:46;;;;;;;20.60;16.88;;;21.50;71.50;;;;;;4924995;29;20054;-65
2021/06/26 04:48:12;;;;;;;20.58;16.85;;;21.60;71.40;;;;;;4939275;29;20031;-65
2021/06/26 04:50:38;;;;;;;20.33;17.92;;;21.60;71.50;;;;;;4941481;29;20122;-66
2021/06/26 04:53:04;;;;;;;23.13;20.23;;;21.50;71.60;;;;;;4941526;29;20063;-65
2021/06/26 04:55:29;;;;;;;19.17;16.50;;;21.50;72.20;;;;;;4940016;29;20134;-66
2021/06/26 04:57:55;;;;;;;18.73;16.20;;;21.40;71.80;;;;;;4939820;29;20040;-66
2021/06/26 05:00:22;;;;;;;17.88;16.08;;;21.50;71.70;;;;;;4940362;29;20057;-65
2021/06/26 05:02:47;;;;;;;26.55;22.40;;;21.50;71.60;;;;;;4939957;28;20047;-65
2021/06/26 05:05:13;;;;;;;23.85;20.38;;;21.50;72.10;;;;;;4940025;29;20031;-65
2021/06/26 05:07:39;;;;;;;17.60;15.70;;;21.50;72.00;;;;;;4939852;29;20058;-66
2021/06/26 05:10:05;;;;;;;18.52;16.17;;;21.50;71.90;;;;;;4940220;29;20500;-66
2021/06/26 05:12:31;;;;;;;18.45;16.50;;;21.50;71.80;;;;;;4939597;29;20472;-66
2021/06/26 05:14:57;;;;;;;18.83;16.45;;;21.50;71.70;;;;;;4939293;29;20039;-66
2021/06/26 05:17:23;;;;;;;18.60;16.60;;;21.60;71.60;;;;;;4940398;29;20040;-66
2021/06/26 05:19:48;;;;;;;19.40;16.38;;;21.60;71.60;;;;;;4939315;29;20046;-66
2021/06/26 05:22:14;;;;;;;18.15;15.40;;;21.60;71.50;;;;;;4940711;29;20522;-66
2021/06/26 05:24:41;;;;;;;18.95;15.52;;;21.60;71.40;;;;;;4938295;29;20043;-65
2021/06/26 05:27:08;;;;;;;21.80;17.65;;;21.60;71.50;;;;;;4939148;29;20050;-66
2021/06/26 05:29:39;;;;;;;23.48;20.90;;;21.60;71.70;;;;;;4939991;29;20059;-66
2021/06/26 05:32:06;;;;;;;20.55;18.35;;;21.60;72.00;;;;;;4941089;29;20039;-66
2021/06/26 05:34:32;;;;;;;22.65;19.10;;;21.50;72.30;;;;;;4939010;29;20049;-65
2021/06/26 05:36:58;;;;;;;19.48;17.48;;;21.40;72.90;;;;;;4937627;29;20039;-65
2021/06/26 05:39:23;;;;;;;32.85;26.92;;;21.40;72.40;;;;;;4938989;29;20047;-66
2021/06/26 05:41:49;;;;;;;30.55;25.00;;;21.40;73.50;;;;;;4922287;29;20039;-66
2021/06/26 05:44:15;;;;;;;26.17;21.05;;;21.20;74.30;;;;;;4923273;29;20172;-66
2021/06/26 05:46:41;;;;;;;33.50;25.83;;;21.10;73.90;;;;;;4939507;29;20043;-66
2021/06/26 05:49:07;;;;;;;28.02;23.58;;;21.10;74.00;;;;;;4940063;29;20489;-65
2021/06/26 05:51:32;;;;;;;37.45;31.00;;;21.00;74.10;;;;;;4938988;29;20066;-66
2021/06/26 05:53:58;;;;;;;27.55;23.58;;;20.90;75.60;;;;;;4940086;29;20047;-65
2021/06/26 05:56:24;;;;;;;21.15;18.88;;;20.80;75.50;;;;;;4940194;29;20074;-66
2021/06/26 05:58:50;;;;;;;37.88;31.05;;;20.80;74.90;;;;;;4939733;29;20035;-66
2021/06/26 06:01:16;;;;;;;37.33;29.50;;;20.80;76.10;;;;;;4939637;29;20043;-66
2021/06/26 06:03:41;;;;;;;33.92;28.67;;;20.70;76.20;;;;;;4941722;29;20042;-67
2021/06/26 06:06:07;;;;;;;20.02;17.77;;;20.60;76.90;;;;;;4921907;29;20086;-66
2021/06/26 06:08:33;;;;;;;32.92;27.70;;;20.60;76.60;;;;;;4941421;29;20122;-66
2021/06/26 06:11:00;;;;;;;27.60;20.85;;;20.60;76.50;;;;;;4937920;29;20120;-66
2021/06/26 06:13:25;;;;;;;43.08;29.38;;;20.80;78.10;;;;;;4940512;29;20057;-66
2021/06/26 06:15:51;;;;;;;30.98;22.60;;;20.90;77.70;;;;;;4930799;29;20040;-66
2021/06/26 06:18:19;;;;;;;42.67;27.13;;;20.90;78.30;;;;;;4940791;29;20414;-66
2021/06/26 06:20:46;;;;;;;44.30;33.80;;;20.90;78.30;;;;;;4941856;29;20043;-66
2021/06/26 06:23:12;;;;;;;39.70;32.22;;;20.90;76.90;;;;;;4938335;29;20043;-66
2021/06/26 06:25:38;;;;;;;38.50;28.85;;;20.70;76.80;;;;;;4922968;29;20039;-66
2021/06/26 06:28:05;;;;;;;41.13;33.15;;;20.60;77.70;;;;;;4940291;29;20408;-66
2021/06/26 06:30:32;;;;;;;28.52;20.15;;;20.50;77.60;;;;;;4940186;29;20047;-67
2021/06/26 06:32:59;;;;;;;31.05;21.15;;;20.50;78.20;;;;;;4940510;29;20129;-67
2021/06/26 06:35:26;;;;;;;43.22;35.05;;;20.70;78.20;;;;;;4939984;29;20047;-66
2021/06/26 06:37:52;;;;;;;45.85;35.80;;;20.80;76.90;;;;;;4940519;29;20046;-68
2021/06/26 06:40:18;;;;;;;38.75;30.80;;;20.60;76.50;;;;;;4939452;29;20047;-69
2021/06/26 06:42:44;;;;;;;43.83;34.90;;;20.50;77.40;;;;;;4941016;29;20404;-68
2021/06/26 06:45:12;;;;;;;44.10;35.30;;;20.50;77.60;;;;;;4939498;29;20042;-69
2021/06/26 06:47:38;;;;;;;45.33;35.92;;;20.50;78.00;;;;;;4937427;29;20066;-67
2021/06/26 06:50:06;;;;;;;41.42;32.10;;;20.50;78.00;;;;;;4940088;29;20039;-66
2021/06/26 06:52:32;;;;;;;48.38;36.05;;;20.40;78.20;;;;;;4940245;29;20043;-67
2021/06/26 06:54:58;;;;;;;48.47;38.17;;;20.30;77.80;;;;;;4940169;29;20043;-67
2021/06/26 06:57:25;;;;;;;49.50;37.92;;;20.20;77.80;;;;;;4939986;29;20063;-67
2021/06/26 06:59:52;;;;;;;49.70;39.40;;;20.10;78.30;;;;;;4941175;29;20044;-67
2021/06/26 07:02:19;;;;;;;47.58;38.45;;;20.10;78.50;;;;;;4941685;29;20500;-67
2021/06/26 07:04:45;;;;;;;45.42;36.72;;;20.00;78.80;;;;;;4942996;29;20042;-67
2021/06/26 07:07:11;;;;;;;50.67;39.47;;;20.00;79.20;;;;;;4943191;29;20054;-66
2021/06/26 07:09:37;;;;;;;49.25;38.03;;;20.00;79.00;;;;;;4942951;29;20480;-66
2021/06/26 07:12:04;;;;;;;48.85;38.38;;;20.10;78.80;;;;;;4942913;29;20043;-66
2021/06/26 07:14:29;;;;;;;46.83;36.22;;;20.20;78.10;;;;;;4940941;29;20042;-66
2021/06/26 07:16:55;;;;;;;38.70;30.52;;;20.20;77.70;;;;;;4943520;29;20044;-67
2021/06/26 07:19:21;;;;;;;44.55;35.78;;;20.20;77.70;;;;;;4944591;29;20051;-66
2021/06/26 07:21:47;;;;;;;44.63;34.15;;;20.40;77.50;;;;;;4941334;29;20130;-67
2021/06/26 07:24:13;;;;;;;50.45;40.00;;;20.50;77.20;;;;;;4941871;29;20089;-66
2021/06/26 07:26:39;;;;;;;40.95;30.33;;;20.50;76.80;;;;;;4942807;29;20072;-64
2021/06/26 07:29:06;;;;;;;49.38;37.70;;;20.40;77.30;;;;;;4940686;29;20046;-64
2021/06/26 07:31:32;;;;;;;39.78;29.88;;;20.40;77.60;;;;;;4941382;28;22231;-64
2021/06/26 07:33:58;;;;;;;49.38;37.28;;;20.50;77.50;;;;;;4940384;29;20042;-64
2021/06/26 07:36:25;;;;;;;41.90;35.22;;;20.60;77.00;;;;;;4942600;29;20039;-65
2021/06/26 07:38:50;;;;;;;41.28;33.28;;;20.60;76.70;;;;;;4941553;29;20183;-65
2021/06/26 07:41:16;;;;;;;42.92;32.28;;;20.60;77.20;;;;;;4941487;29;20106;-64
2021/06/26 07:43:43;;;;;;;45.50;33.13;;;20.60;76.20;;;;;;4943555;29;20044;-64
2021/06/26 07:46:09;;;;;;;39.13;32.15;;;20.80;75.50;;;;;;4941141;29;20052;-65
2021/06/26 07:48:35;;;;;;;40.15;31.15;;;20.80;75.40;;;;;;4941338;29;20478;-64
2021/06/26 07:51:01;;;;;;;30.20;25.05;;;21.00;75.70;;;;;;4942030;29;20479;-63
2021/06/26 07:53:27;;;;;;;30.73;23.92;;;21.30;74.50;;;;;;4941674;29;20055;-65
2021/06/26 07:55:53;;;;;;;35.38;27.77;;;21.70;73.90;;;;;;4924006;29;20051;-64
2021/06/26 07:58:24;;;;;;;29.65;26.05;;;22.10;72.90;;;;;;4941726;29;20172;-64
2021/06/26 08:00:51;;;;;;;31.40;26.73;;;22.50;71.50;;;;;;4940047;29;20043;-64
2021/06/26 08:03:17;;;;;;;31.30;26.48;;;22.70;70.00;;;;;;4942571;29;20143;-65
2021/06/26 08:05:44;;;;;;;29.40;24.35;;;23.00;68.80;;;;;;4940363;29;20118;-65
2021/06/26 08:08:10;;;;;;;35.63;26.80;;;23.20;67.50;;;;;;4925571;29;20198;-64
2021/06/26 08:10:36;;;;;;;24.17;20.60;;;23.40;67.40;;;;;;4943249;29;20051;-64
2021/06/26 08:13:03;;;;;;;23.10;18.20;;;23.60;67.40;;;;;;4941216;29;20499;-65
2021/06/26 08:15:28;;;;;;;31.50;28.00;;;23.80;66.40;;;;;;4924022;29;20480;-65
2021/06/26 08:17:55;;;;;;;35.70;30.15;;;24.10;65.20;;;;;;4942935;29;20083;-65
2021/06/26 08:20:24;;;;;;;27.50;21.02;;;24.40;64.00;;;;;;4925418;29;20186;-66
2021/06/26 08:22:50;;;;;;;24.23;18.95;;;24.50;63.00;;;;;;4921862;29;20043;-65
2021/06/26 08:25:16;;;;;;;22.05;16.92;;;24.70;63.10;;;;;;4941142;29;20074;-65
2021/06/26 08:27:42;;;;;;;30.55;22.58;;;25.00;63.50;;;;;;4938156;29;20118;-64
2021/06/26 08:30:09;;;;;;;28.42;22.02;;;25.10;62.60;;;;;;4933083;28;20047;-64
2021/06/26 08:32:35;;;;;;;25.60;21.27;;;25.20;60.40;;;;;;4918999;29;20062;-64
2021/06/26 08:35:00;;;;;;;22.85;19.13;;;25.10;59.90;;;;;;4935660;29;20122;-64
2021/06/26 08:37:26;;;;;;;20.35;18.15;;;24.80;59.10;;;;;;4936682;29;20126;-64
2021/06/26 08:39:52;;;;;;;20.98;17.45;;;24.60;58.70;;;;;;4935442;29;20047;-64
2021/06/26 08:42:20;;;;;;;19.55;17.08;;;24.40;59.00;;;;;;4925692;29;20042;-64
2021/06/26 08:44:53;;;;;;;18.33;16.23;;;24.30;58.90;;;;;;4943544;29;20051;-63
2021/06/26 08:47:18;;;;;;;;;;;24.30;59.90;;;;;;4940686;29;20043;-65
2021/06/26 08:49:45;;;;;;;18.33;14.32;;;24.20;59.50;;;;;;4938866;29;19922;-69
2021/06/26 08:52:11;;;;;;;21.17;16.95;;;24.10;60.30;;;;;;4942292;29;20035;-67
2021/06/26 08:54:37;;;;;;;21.13;18.15;;;24.10;60.10;;;;;;4941663;29;20154;-67
2021/06/26 08:57:04;;;;;;;19.55;17.13;;;23.90;60.80;;;;;;4941390;29;20043;-68
2021/06/26 08:59:29;;;;;;;38.28;33.13;;;23.80;62.10;;;;;;4942705;29;20122;-67
2021/06/26 09:01:55;;;;;;;39.78;33.70;;;23.80;64.10;;;;;;4942997;29;20038;-67
2021/06/26 09:04:21;;;;;;;38.22;30.77;;;23.80;64.80;;;;;;4941365;29;20423;-67
2021/06/26 09:06:54;;;;;;;37.50;32.05;;;23.80;65.00;;;;;;4944109;29;20048;-67
2021/06/26 09:09:37;;;;;;;37.05;30.42;;;23.80;65.00;;;;;;4941146;29;20035;-66
2021/06/26 09:12:08;;;;;;;35.08;29.83;;;23.90;64.60;;;;;;4941717;29;20039;-67
2021/06/26 09:14:35;;;;;;;29.08;25.88;;;23.90;64.80;;;;;;4925990;29;20046;-66
2021/06/26 09:17:01;;;;;;;37.05;32.72;;;23.90;64.80;;;;;;4942343;29;20043;-66
2021/06/26 09:19:29;;;;;;;35.17;31.38;;;24.00;64.80;;;;;;4943031;29;20042;-67
2021/06/26 09:22:02;;;;;;;38.60;31.85;;;24.00;65.10;;;;;;4943197;29;20365;-67
2021/06/26 09:24:45;;;;;;;38.65;33.75;;;24.00;64.60;;;;;;4941392;29;20118;-67
2021/06/26 09:27:13;;;;;;;36.50;30.80;;;24.00;64.40;;;;;;4941838;29;20042;-67
2021/06/26 09:29:52;;;;;;;35.40;30.75;;;24.00;64.50;;;;;;4943229;29;20035;-68
2021/06/26 09:32:29;;;;;;;35.53;31.63;;;24.00;64.20;;;;;;4939977;29;20051;-68
2021/06/26 09:34:56;;;;;;;39.08;34.03;;;24.00;64.30;;;;;;4940246;29;20187;-67
2021/06/26 09:37:27;;;;;;;34.10;29.65;;;23.90;64.10;;;;;;4941517;29;20039;-67
2021/06/26 09:39:56;;;;;;;39.50;31.50;;;23.80;64.40;;;;;;4940365;29;20043;-67
2021/06/26 09:42:29;;;;;;;39.35;28.13;;;23.80;64.50;;;;;;4943068;29;20063;-68
2021/06/26 09:45:06;;;;;;;39.53;30.45;;;23.80;64.70;;;;;;4941400;29;20514;-68
2021/06/26 09:47:43;;;;;;;32.53;27.60;;;23.80;64.90;;;;;;4944564;29;20047;-67
2021/06/26 09:50:23;;;;;;;36.53;29.98;;;23.70;64.90;;;;;;4942312;29;20043;-66
2021/06/26 09:52:49;;;;;;;38.08;29.55;;;23.80;64.70;;;;;;4941225;29;20047;-66
2021/06/26 09:55:22;;;;;;;30.75;26.65;;;23.80;64.40;;;;;;4942857;29;20460;-67
2021/06/26 09:57:51;;;;;;;31.17;26.92;;;23.80;64.00;;;;;;4941728;29;20050;-67
2021/06/26 10:00:18;;;;;;;28.45;24.60;;;23.80;64.50;;;;;;4937698;29;20042;-67
2021/06/26 10:02:45;;;;;;;29.45;24.70;;;23.80;64.20;;;;;;4923262;28;20047;-66
2021/06/26 10:05:12;;;;;;;30.25;25.80;;;23.80;64.20;;;;;;4934722;29;20040;-67
2021/06/26 10:07:39;;;;;;;31.38;26.70;;;23.80;64.20;;;;;;4924342;29;20055;-67
2021/06/26 10:10:09;;;;;;;33.40;25.52;;;24.00;64.40;;;;;;4939634;29;20035;-67
2021/06/26 10:12:36;;;;;;;33.33;27.48;;;24.00;63.60;;;;;;4941675;29;20047;-66
2021/06/26 10:15:03;;;;;;;28.38;24.27;;;24.00;63.50;;;;;;4940262;29;20090;-66
2021/06/26 10:17:30;;;;;;;28.70;22.55;;;24.10;63.60;;;;;;4940956;29;20166;-66
2021/06/26 10:19:56;;;;;;;27.17;22.30;;;24.10;63.50;;;;;;4939909;29;20051;-66
2021/06/26 10:22:23;;;;;;;25.13;20.30;;;24.10;63.40;;;;;;4922804;29;20062;-66
2021/06/26 10:24:49;;;;;;;21.95;19.60;;;24.10;63.10;;;;;;4941815;29;20110;-66
2021/06/26 10:27:21;;;;;;;29.52;25.73;;;24.10;62.90;;;;;;4939603;29;20070;-66
2021/06/26 10:29:47;;;;;;;92.13;71.88;;;24.10;63.00;;;;;;4937938;29;20373;-67
2021/06/26 10:32:15;;;;;;;59.90;47.17;;;24.10;63.20;;;;;;4941507;29;20032;-66
2021/06/26 10:34:44;;;;;;;36.67;24.42;;;24.10;63.20;;;;;;4941988;28;20051;-66
2021/06/26 10:37:14;;;;;;;32.92;27.90;;;24.20;63.00;;;;;;4927855;29;20135;-66
2021/06/26 10:39:40;;;;;;;26.98;22.20;;;24.20;63.10;;;;;;4945440;29;20075;-67
2021/06/26 10:42:08;;;;;;;30.42;24.50;;;24.10;63.10;;;;;;4943012;29;20568;-67
2021/06/26 10:44:54;;;;;;;29.10;25.45;;;24.20;63.40;;;;;;4941653;29;20039;-66
2021/06/26 10:47:39;;;;;;;32.85;28.45;;;24.20;63.50;;;;;;4942042;29;21133;-64
2021/06/26 10:50:14;;;;;;;36.75;32.72;;;24.20;63.60;;;;;;4941815;29;20064;-66
2021/06/26 10:52:49;;;;;;;32.75;28.75;;;24.10;63.60;;;;;;4943504;29;20066;-65
2021/06/26 10:55:34;;;;;;;38.80;32.22;;;24.10;64.50;;;;;;4942914;29;20043;-65
2021/06/26 10:58:01;;;;;;;36.47;29.63;;;24.10;64.40;;;;;;4942752;29;20040;-65
2021/06/26 11:00:35;;;;;;;35.38;28.80;;;24.00;64.30;;;;;;4941375;29;20035;-64
2021/06/26 11:03:02;;;;;;;35.25;28.63;;;24.00;64.10;;;;;;4940748;28;20035;-65
2021/06/26 11:05:30;;;;;;;30.63;25.60;;;24.00;64.80;;;;;;4940462;29;20035;-64
2021/06/26 11:07:56;;;;;;;31.58;27.17;;;24.10;64.20;;;;;;4941636;29;20098;-64
2021/06/26 11:10:22;;;;;;;34.78;29.15;;;24.00;64.40;;;;;;4923441;29;20126;-64
2021/06/26 11:12:49;;;;;;;36.60;30.20;;;24.00;64.70;;;;;;4941510;29;20404;-64
2021/06/26 11:15:24;;;;;;;36.08;29.55;;;24.00;64.90;;;;;;4925477;29;20031;-64
2021/06/26 11:17:50;;;;;;;34.95;29.27;;;24.00;65.30;;;;;;4943208;29;20106;-65
2021/06/26 11:20:18;;;;;;;34.58;30.25;;;23.90;65.70;;;;;;4925459;29;20456;-66
2021/06/26 11:22:53;;;;;;;33.08;28.48;;;23.90;66.10;;;;;;4940593;29;20043;-66
2021/06/26 11:25:19;;;;;;;36.38;30.48;;;23.90;66.00;;;;;;4941663;29;20045;-66
2021/06/26 11:27:45;;;;;;;37.97;28.55;;;23.80;66.60;;;;;;4941516;29;20043;-66
2021/06/26 11:30:14;;;;;;;35.05;28.95;;;23.80;66.80;;;;;;4942701;29;20058;-64
2021/06/26 11:32:39;;;;;;;38.28;29.63;;;23.70;67.20;;;;;;4943149;29;20090;-67
2021/06/26 11:35:15;;;;;;;31.33;26.83;;;23.70;67.60;;;;;;4941738;29;20050;-67
2021/06/26 11:37:47;;;;;;;34.22;26.85;;;23.70;67.30;;;;;;4924185;29;20400;-68
2021/06/26 11:40:13;;;;;;;35.78;29.83;;;23.70;67.60;;;;;;4940403;29;20484;-68
2021/06/26 11:42:50;;;;;;;37.75;30.00;;;23.80;67.60;;;;;;4941324;29;20035;-68
2021/06/26 11:45:21;;;;;;;37.17;29.23;;;23.80;67.70;;;;;;4939852;29;20043;-68
2021/06/26 11:47:47;;;;;;;39.10;32.65;;;23.80;68.00;;;;;;4940989;29;20396;-67
2021/06/26 11:50:17;;;;;;;42.72;36.03;;;23.80;68.20;;;;;;4941808;29;20051;-67
2021/06/26 11:52:43;;;;;;;39.50;33.13;;;23.80;68.30;;;;;;4940509;29;20643;-68
2021/06/26 11:55:09;;;;;;;40.60;31.25;;;23.80;68.50;;;;;;4924329;29;20035;-68
2021/06/26 11:57:35;;;;;;;44.92;35.85;;;23.70;68.30;;;;;;4941981;29;20084;-68
2021/06/26 12:00:01;;;;;;;44.38;34.38;;;23.70;68.40;;;;;;4940855;29;20035;-67
2021/06/26 12:02:33;;;;;;;41.45;36.33;;;23.70;68.70;;;;;;4922997;28;20039;-66
2021/06/26 12:05:00;;;;;;;43.83;34.85;;;23.50;68.40;;;;;;4942234;29;20038;-67
2021/06/26 12:07:36;;;;;;;50.63;36.92;;;23.50;68.50;;;;;;4939591;29;20054;-67
2021/06/26 12:10:04;;;;;;;47.63;39.42;;;23.50;68.60;;;;;;4940522;29;20055;-67
2021/06/26 12:12:38;;;;;;;45.35;36.53;;;23.40;68.70;;;;;;4939276;29;20504;-67
2021/06/26 12:15:08;;;;;;;50.25;39.47;;;23.40;69.00;;;;;;4922998;29;20035;-67
2021/06/26 12:17:34;;;;;;;47.20;40.47;;;23.40;69.30;;;;;;4942879;29;20070;-67
2021/06/26 12:20:12;;;;;;;50.55;40.53;;;23.30;69.20;;;;;;4923358;29;20074;-66
2021/06/26 12:22:38;;;;;;;47.33;39.53;;;23.30;69.50;;;;;;4941072;29;20142;-64
2021/06/26 12:25:05;;;;;;;46.53;37.65;;;23.20;69.50;;;;;;4941118;29;20123;-64
2021/06/26 12:27:31;;;;;;;41.47;34.45;;;23.20;69.60;;;;;;4939811;29;20047;-65
2021/06/26 12:30:17;;;;;;;47.05;37.40;;;23.10;69.50;;;;;;4933533;29;20046;-66